createdAt,value
2022-11-28T00:00:38.078Z,10.90
2022-11-28T00:05:39.942Z,10.30
2022-11-28T00:10:38.942Z,10.30
2022-11-28T00:15:37.869Z,10.30
2022-11-28T00:20:37.784Z,9.80
2022-11-28T00:25:37.729Z,10.10
2022-11-28T00:30:37.714Z,9.90
2022-11-28T00:35:37.620Z,9.40
2022-11-28T00:40:37.527Z,9.00
2022-11-28T00:45:37.536Z,9.00
2022-11-28T00:50:37.442Z,8.90
2022-11-28T00:55:37.327Z,9.10
2022-11-28T01:00:37.289Z,8.20
2022-11-28T01:05:37.211Z,9.20
2022-11-28T01:10:37.145Z,8.30
2022-11-28T01:15:37.081Z,8.80
2022-11-28T01:20:37.072Z,9.20
2022-11-28T01:25:36.959Z,8.20
2022-11-28T01:30:36.881Z,8.60
2022-11-28T01:35:36.836Z,8.80
2022-11-28T01:40:36.726Z,8.90
2022-11-28T01:45:36.672Z,9.20
2022-11-28T01:50:36.863Z,9.30
2022-11-28T01:55:36.584Z,9.10
2022-11-28T02:00:36.552Z,10.50
2022-11-28T02:05:36.434Z,10.00
2022-11-28T02:10:36.390Z,9.70
2022-11-28T02:15:36.332Z,9.90
2022-11-28T02:20:36.210Z,9.40
2022-11-28T02:25:36.169Z,10.30
2022-11-28T02:30:36.103Z,9.80
2022-11-28T02:35:36.067Z,9.70
2022-11-28T02:40:35.981Z,9.60
2022-11-28T02:45:35.902Z,9.60
2022-11-28T02:50:35.891Z,10.30
2022-11-28T02:55:35.834Z,9.70
2022-11-28T03:00:35.763Z,10.60
2022-11-28T03:05:35.650Z,10.20
2022-11-28T03:10:36.064Z,10.40
2022-11-28T03:15:35.535Z,10.50
2022-11-28T03:20:35.461Z,10.20
2022-11-28T03:25:35.378Z,10.20
2022-11-28T03:30:35.351Z,9.80
2022-11-28T03:35:35.277Z,10.40
2022-11-28T03:40:35.239Z,10.10
2022-11-28T03:45:35.198Z,9.80
2022-11-28T03:50:35.091Z,9.60
2022-11-28T03:55:35.113Z,10.30
2022-11-28T04:00:34.964Z,9.80
2022-11-28T04:05:34.893Z,10.10
2022-11-28T04:10:34.873Z,9.90
2022-11-28T04:15:34.751Z,9.60
2022-11-28T04:20:34.711Z,10.90
2022-11-28T04:25:34.622Z,11.30
2022-11-28T04:30:34.570Z,10.70
2022-11-28T04:35:34.510Z,10.70
2022-11-28T04:40:34.430Z,10.90
2022-11-28T04:45:34.461Z,11.00
2022-11-28T04:50:34.362Z,11.30
2022-11-28T04:55:34.249Z,12.20
2022-11-28T05:00:34.241Z,11.50
2022-11-28T05:05:34.133Z,11.40
2022-11-28T05:10:34.069Z,11.60
2022-11-28T05:15:33.966Z,12.20
2022-11-28T05:20:33.943Z,11.40
2022-11-28T05:25:33.839Z,12.10
2022-11-28T05:30:33.809Z,11.90
2022-11-28T05:35:33.725Z,12.00
2022-11-28T05:40:33.716Z,11.80
2022-11-28T05:45:33.628Z,11.90
2022-11-28T05:50:37.078Z,12.00
2022-11-28T05:55:34.480Z,11.90
2022-11-28T06:00:33.678Z,11.70
2022-11-28T06:05:42.614Z,11.30
2022-11-28T06:10:34.322Z,11.30
2022-11-28T06:15:37.545Z,11.90
2022-11-28T06:20:33.178Z,11.00
2022-11-28T06:25:33.119Z,11.60
2022-11-28T06:30:33.024Z,11.60
2022-11-28T06:35:32.998Z,10.60
2022-11-28T06:40:32.898Z,10.60
2022-11-28T06:45:32.878Z,10.70
2022-11-28T06:50:32.793Z,11.00
2022-11-28T06:55:32.678Z,10.90
2022-11-28T07:00:32.667Z,10.70
2022-11-28T07:05:32.594Z,10.00
2022-11-28T07:10:32.506Z,10.30
2022-11-28T07:15:32.490Z,10.30
2022-11-28T07:20:32.385Z,9.80
2022-11-28T07:25:32.297Z,9.80
2022-11-28T07:30:32.233Z,10.00
2022-11-28T07:35:32.220Z,9.60
2022-11-28T07:40:32.136Z,9.70
2022-11-28T07:45:47.415Z,9.50
2022-11-28T07:50:33.022Z,9.20
2022-11-28T07:55:31.933Z,9.30
2022-11-28T08:00:31.882Z,9.10
2022-11-28T08:05:31.839Z,9.30
2022-11-28T08:10:31.744Z,9.70
2022-11-28T08:15:31.735Z,9.60
2022-11-28T08:20:31.671Z,9.20
2022-11-28T08:25:31.555Z,9.90
2022-11-28T08:30:31.617Z,9.60
2022-11-28T08:35:31.533Z,8.90
2022-11-28T08:40:31.339Z,9.70
2022-11-28T08:45:31.330Z,9.40
2022-11-28T08:50:31.246Z,9.90
2022-11-28T08:55:32.846Z,9.10
2022-11-28T09:00:31.224Z,9.40
2022-11-28T09:05:31.062Z,10.00
2022-11-28T09:10:30.987Z,10.10
2022-11-28T09:15:30.916Z,10.30
2022-11-28T09:20:30.814Z,9.80
2022-11-28T09:25:30.774Z,10.20
2022-11-28T09:30:30.806Z,9.40
2022-11-28T09:35:30.655Z,10.20
2022-11-28T09:40:30.582Z,9.80
2022-11-28T09:45:30.631Z,10.30
2022-11-28T09:50:30.448Z,10.40
2022-11-28T09:55:30.369Z,9.90
2022-11-28T10:00:30.357Z,10.20
2022-11-28T10:05:30.304Z,10.10
2022-11-28T10:10:30.154Z,10.70
2022-11-28T10:15:30.167Z,11.00
2022-11-28T10:20:30.060Z,11.00
2022-11-28T10:25:29.976Z,10.10
2022-11-28T10:30:29.966Z,10.90
2022-11-28T10:35:29.865Z,12.00
2022-11-28T10:40:29.807Z,11.50
2022-11-28T10:45:29.701Z,11.50
2022-11-28T10:50:32.420Z,11.70
2022-11-28T10:55:29.598Z,11.40
2022-11-28T11:00:29.540Z,11.70
2022-11-28T11:05:29.467Z,11.60
2022-11-28T11:10:29.392Z,11.00
2022-11-28T11:15:29.317Z,11.70
2022-11-28T11:20:29.293Z,11.70
2022-11-28T11:25:29.226Z,11.40
2022-11-28T11:30:29.224Z,12.70
2022-11-28T11:35:29.062Z,12.30
2022-11-28T11:40:28.964Z,12.60
2022-11-28T11:45:28.931Z,11.90
2022-11-28T11:50:28.884Z,11.30
2022-11-28T11:55:28.769Z,12.10
2022-11-28T12:00:28.707Z,12.10
2022-11-28T12:05:28.669Z,12.70
2022-11-28T12:10:28.622Z,11.90
2022-11-28T12:15:28.502Z,11.80
2022-11-28T12:20:28.463Z,12.40
2022-11-28T12:25:28.425Z,12.40
2022-11-28T12:30:28.615Z,12.50
2022-11-28T12:35:28.265Z,12.40
2022-11-28T12:40:28.273Z,12.20
2022-11-28T12:45:28.243Z,13.20
2022-11-28T12:50:28.062Z,12.30
2022-11-28T12:55:27.976Z,12.80
2022-11-28T13:00:27.929Z,11.80
2022-11-28T13:05:27.845Z,12.50
2022-11-28T13:10:27.783Z,12.70
2022-11-28T13:15:27.701Z,12.10
2022-11-28T13:20:27.686Z,12.70
2022-11-28T13:25:27.573Z,12.60
2022-11-28T13:30:27.564Z,12.30
2022-11-28T13:35:27.484Z,11.40
2022-11-28T13:40:27.445Z,11.60
2022-11-28T13:45:31.970Z,11.40
2022-11-28T13:50:28.503Z,11.90
2022-11-28T13:55:27.216Z,12.00
2022-11-28T14:00:27.868Z,12.50
2022-11-28T14:05:27.074Z,12.80
2022-11-28T14:10:26.989Z,14.40
2022-11-28T14:15:26.952Z,14.10
2022-11-28T14:20:26.863Z,13.70
2022-11-28T14:25:26.882Z,14.10
2022-11-28T14:30:26.803Z,13.80
2022-11-28T14:35:26.695Z,13.50
2022-11-28T14:40:26.610Z,13.00
2022-11-28T14:45:26.570Z,12.60
2022-11-28T14:50:26.501Z,13.00
2022-11-28T14:55:26.434Z,12.40
2022-11-28T15:00:26.486Z,12.00
2022-11-28T15:05:26.298Z,12.60
2022-11-28T15:10:26.275Z,12.00
2022-11-28T15:15:26.253Z,12.20
2022-11-28T15:20:26.256Z,13.00
2022-11-28T15:25:26.036Z,12.20
2022-11-28T15:30:26.002Z,12.80
2022-11-28T15:35:25.879Z,13.10
2022-11-28T15:40:25.872Z,13.20
2022-11-28T15:45:26.094Z,12.90
2022-11-28T15:50:25.782Z,14.10
2022-11-28T15:55:25.662Z,12.70
2022-11-28T16:00:25.579Z,13.50
2022-11-28T16:05:25.557Z,13.30
2022-11-28T16:10:25.579Z,14.30
2022-11-28T16:15:25.366Z,14.30
2022-11-28T16:20:25.355Z,13.80
2022-11-28T16:25:25.236Z,13.70
2022-11-28T16:30:25.199Z,14.30
2022-11-28T16:35:25.148Z,14.60
2022-11-28T16:40:25.055Z,15.90
2022-11-28T16:45:25.019Z,15.00
2022-11-28T16:50:24.946Z,15.20
2022-11-28T16:55:24.952Z,16.10
2022-11-28T17:00:24.842Z,16.70
2022-11-28T17:05:24.782Z,15.60
2022-11-28T17:10:24.797Z,16.50
2022-11-28T17:15:24.809Z,15.90
2022-11-28T17:20:26.031Z,16.20
2022-11-28T17:25:25.039Z,14.80
2022-11-28T17:30:24.485Z,15.30
2022-11-28T17:35:24.370Z,16.10
2022-11-28T17:40:24.297Z,15.70
2022-11-28T17:45:24.371Z,15.60
2022-11-28T17:50:24.170Z,15.10
2022-11-28T17:55:24.096Z,15.90
2022-11-28T18:00:24.078Z,15.80
2022-11-28T18:05:26.177Z,16.10
2022-11-28T18:10:24.000Z,15.90
2022-11-28T18:15:23.944Z,15.20
2022-11-28T18:20:23.901Z,16.30
2022-11-28T18:25:23.811Z,15.70
2022-11-28T18:30:23.665Z,16.00
2022-11-28T18:35:23.658Z,15.40
2022-11-28T18:40:23.534Z,15.60
2022-11-28T18:45:24.070Z,16.30
2022-11-28T18:50:23.438Z,16.70
2022-11-28T18:55:23.342Z,15.80
2022-11-28T19:00:23.266Z,16.00
2022-11-28T19:05:23.218Z,15.80
2022-11-28T19:10:23.233Z,14.80
2022-11-28T19:15:23.138Z,16.60
2022-11-28T19:20:23.047Z,16.30
2022-11-28T19:25:23.015Z,16.30
2022-11-28T19:30:22.920Z,17.10
2022-11-28T19:35:22.771Z,17.30
2022-11-28T19:40:22.771Z,15.20
2022-11-28T19:45:22.886Z,16.00
2022-11-28T19:50:22.817Z,16.20
2022-11-28T19:55:22.634Z,16.40
2022-11-28T20:00:22.580Z,17.10
2022-11-28T20:05:22.442Z,16.00
2022-11-28T20:10:22.633Z,16.80
2022-11-28T20:15:22.716Z,16.70
2022-11-28T20:20:22.271Z,16.50
2022-11-28T20:25:22.133Z,16.70
2022-11-28T20:30:22.172Z,17.50
2022-11-28T20:35:22.011Z,17.00
2022-11-28T20:40:21.982Z,17.30
2022-11-28T20:45:21.877Z,17.90
2022-11-28T20:50:21.831Z,16.70
2022-11-28T20:55:21.787Z,17.20
2022-11-28T21:00:26.357Z,17.80
2022-11-28T21:05:22.696Z,17.10
2022-11-28T21:10:21.610Z,16.60
2022-11-28T21:15:21.514Z,17.20
2022-11-28T21:20:21.523Z,16.70
2022-11-28T21:25:21.535Z,16.60
2022-11-28T21:30:21.347Z,16.40
2022-11-28T21:35:21.306Z,15.60
2022-11-28T21:40:21.268Z,16.60
2022-11-28T21:45:21.205Z,17.00
2022-11-28T21:50:21.055Z,16.30
2022-11-28T21:55:21.071Z,16.90
2022-11-28T22:00:51.728Z,18.00
2022-11-28T22:05:21.849Z,17.00
2022-11-28T22:10:21.518Z,17.80
2022-11-28T22:15:20.722Z,17.90
2022-11-28T22:20:20.871Z,18.60
2022-11-28T22:25:20.676Z,18.00
2022-11-28T22:30:20.531Z,19.20
2022-11-28T22:35:20.455Z,19.40
2022-11-28T22:40:20.479Z,18.70
2022-11-28T22:45:20.341Z,19.20
2022-11-28T22:50:20.366Z,18.20
2022-11-28T22:55:20.378Z,18.60
2022-11-28T23:00:20.176Z,18.50
2022-11-28T23:05:20.144Z,17.50
2022-11-28T23:10:20.112Z,19.10
2022-11-28T23:15:20.280Z,18.10
2022-11-28T23:20:20.139Z,17.70
2022-11-28T23:25:19.884Z,18.10
2022-11-28T23:30:19.746Z,18.40
2022-11-28T23:35:19.678Z,18.20
2022-11-28T23:40:19.747Z,18.60
2022-11-28T23:45:19.590Z,18.80
2022-11-28T23:50:19.546Z,17.80
2022-11-28T23:55:19.586Z,19.00
